createdAt,value
2019-03-22T00:00:01.733Z,25
2019-03-22T00:05:01.449Z,27
2019-03-22T00:10:02.266Z,30
2019-03-22T00:15:01.765Z,28
2019-03-22T00:20:02.226Z,26
2019-03-22T00:25:01.537Z,25
2019-03-22T00:30:01.897Z,23
2019-03-22T00:35:02.312Z,25
2019-03-22T00:40:02.100Z,27
2019-03-22T00:45:01.445Z,32
2019-03-22T00:50:01.834Z,28
2019-03-22T00:55:02.204Z,29
2019-03-22T01:00:01.576Z,26
2019-03-22T01:05:02.212Z,23
2019-03-22T01:10:02.059Z,28
2019-03-22T01:15:01.630Z,32
2019-03-22T01:20:02.095Z,28
2019-03-22T01:25:01.440Z,26
2019-03-22T01:30:01.819Z,35
2019-03-22T01:35:02.193Z,29
2019-03-22T01:40:02.036Z,35
2019-03-22T01:45:01.414Z,32
2019-03-22T01:50:01.848Z,31
2019-03-22T01:55:02.225Z,33
2019-03-22T02:00:01.528Z,29
2019-03-22T02:05:02.168Z,28
2019-03-22T02:10:01.981Z,36
2019-03-22T02:15:01.484Z,28
2019-03-22T02:20:01.939Z,32
2019-03-22T02:25:02.302Z,28
2019-03-22T02:30:01.655Z,32
2019-03-22T02:35:02.048Z,30
2019-03-22T02:40:01.892Z,30
2019-03-22T02:45:02.259Z,30
2019-03-22T02:50:11.622Z,33
2019-03-22T02:55:01.904Z,36
2019-03-22T03:00:02.251Z,34
2019-03-22T03:05:01.874Z,31
2019-03-22T03:10:01.667Z,23
2019-03-22T03:15:02.225Z,33
2019-03-22T03:20:01.683Z,32
2019-03-22T03:25:02.026Z,33
2019-03-22T03:30:01.437Z,33
2019-03-22T03:35:01.877Z,29
2019-03-22T03:40:01.705Z,36
2019-03-22T03:45:02.092Z,32
2019-03-22T03:50:01.515Z,31
2019-03-22T03:55:01.873Z,31
2019-03-22T04:00:02.260Z,31
2019-03-22T04:05:01.897Z,36
2019-03-22T04:10:01.678Z,28
2019-03-22T04:15:02.118Z,32
2019-03-22T04:20:01.582Z,29
2019-03-22T04:25:02.090Z,34
2019-03-22T04:30:01.473Z,31
2019-03-22T04:35:01.889Z,30
2019-03-22T04:40:01.729Z,31
2019-03-22T04:45:02.141Z,35
2019-03-22T04:50:01.502Z,30
2019-03-22T04:55:01.850Z,24
2019-03-22T05:00:02.154Z,27
2019-03-22T05:05:01.804Z,35
2019-03-22T05:10:01.582Z,28
2019-03-22T05:15:01.965Z,28
2019-03-22T05:20:01.427Z,35
2019-03-22T05:25:01.818Z,35
2019-03-22T05:30:02.230Z,28
2019-03-22T05:35:01.578Z,26
2019-03-22T05:40:01.905Z,31
2019-03-22T05:45:02.339Z,29
2019-03-22T05:50:01.706Z,30
2019-03-22T05:55:02.055Z,34
2019-03-22T06:00:01.393Z,25
2019-03-22T06:05:02.141Z,30
2019-03-22T06:10:01.959Z,30
2019-03-22T06:15:02.432Z,36
2019-03-22T06:20:01.938Z,24
2019-03-22T06:25:02.286Z,29
2019-03-22T06:30:01.670Z,28
2019-03-22T06:35:02.083Z,28
2019-03-22T06:40:01.895Z,27
2019-03-22T06:45:02.259Z,28
2019-03-22T06:50:01.636Z,35
2019-03-22T06:55:01.991Z,28
2019-03-22T07:00:06.501Z,31
2019-03-22T07:05:01.954Z,28
2019-03-22T07:10:01.751Z,20
2019-03-22T07:15:01.997Z,19
2019-03-22T07:20:01.721Z,40
2019-03-22T07:25:02.083Z,28
2019-03-22T07:30:01.439Z,26
2019-03-22T07:35:01.833Z,24
2019-03-22T07:40:01.607Z,26
2019-03-22T07:45:01.950Z,24
2019-03-22T07:50:02.297Z,26
2019-03-22T07:55:01.627Z,29
2019-03-22T08:00:01.934Z,33
2019-03-22T08:05:01.569Z,32
2019-03-22T08:10:01.441Z,29
2019-03-22T08:15:02.297Z,21
2019-03-22T08:20:01.740Z,23
2019-03-22T08:25:02.089Z,20
2019-03-22T08:30:01.511Z,33
2019-03-22T08:35:01.873Z,35
2019-03-22T08:40:01.752Z,33
2019-03-22T08:45:02.213Z,34
2019-03-22T08:50:01.645Z,23
2019-03-22T08:55:02.258Z,28
2019-03-22T09:00:01.639Z,25
2019-03-22T09:05:02.274Z,23
2019-03-22T09:10:02.121Z,23
2019-03-22T09:15:01.529Z,25
2019-03-22T09:20:02.057Z,24
2019-03-22T09:25:01.425Z,24
2019-03-22T09:30:01.914Z,26
2019-03-22T09:35:01.379Z,26
2019-03-22T09:40:02.220Z,24
2019-03-22T09:45:01.612Z,23
2019-03-22T09:50:02.012Z,29
2019-03-22T09:55:12.674Z,27
2019-03-22T10:00:01.348Z,22
2019-03-22T10:05:02.156Z,34
2019-03-22T10:10:01.985Z,28
2019-03-22T10:15:01.548Z,26
2019-03-22T10:20:02.011Z,26
2019-03-22T10:25:01.339Z,35
2019-03-22T10:30:01.785Z,32
2019-03-22T10:35:02.147Z,37
2019-03-22T10:40:02.002Z,35
2019-03-22T10:45:01.497Z,42
2019-03-22T10:50:01.904Z,46
2019-03-22T10:55:17.407Z,39
2019-03-22T11:00:02.033Z,45
2019-03-22T11:05:02.299Z,37
2019-03-22T11:10:01.316Z,49
2019-03-22T11:15:01.878Z,47
2019-03-22T11:20:01.777Z,45
2019-03-22T11:25:02.118Z,48
2019-03-22T11:30:01.537Z,52
2019-03-22T11:35:01.923Z,53
2019-03-22T11:40:01.736Z,51
2019-03-22T11:45:02.157Z,49
2019-03-22T11:50:01.547Z,49
2019-03-22T11:55:01.914Z,52
2019-03-22T12:00:02.258Z,54
2019-03-22T12:05:01.867Z,57
2019-03-22T12:10:01.720Z,53
2019-03-22T12:15:01.386Z,56
2019-03-22T12:20:01.878Z,59
2019-03-22T12:25:02.268Z,57
2019-03-22T12:30:01.616Z,53
2019-03-22T12:35:01.994Z,59
2019-03-22T12:40:01.809Z,63
2019-03-22T12:45:02.161Z,57
2019-03-22T12:50:01.555Z,51
2019-03-22T12:55:01.892Z,54
2019-03-22T13:00:02.241Z,54
2019-03-22T13:05:01.862Z,44
2019-03-22T13:10:01.590Z,49
2019-03-22T13:15:01.745Z,53
2019-03-22T13:20:02.202Z,44
2019-03-22T13:25:01.550Z,51
2019-03-22T13:30:01.947Z,41
2019-03-22T13:35:02.291Z,37
2019-03-22T13:40:02.042Z,33
2019-03-22T13:45:01.429Z,37
2019-03-22T13:50:01.764Z,40
2019-03-22T13:55:02.110Z,31
2019-03-22T14:00:01.456Z,31
2019-03-22T14:05:02.119Z,36
2019-03-22T14:10:01.919Z,31
2019-03-22T14:15:01.606Z,35
2019-03-22T14:20:10.769Z,30
2019-03-22T14:25:01.948Z,38
2019-03-22T14:30:02.308Z,33
2019-03-22T14:35:01.649Z,37
2019-03-22T14:40:01.441Z,33
2019-03-22T14:45:01.802Z,36
2019-03-22T14:50:02.202Z,35
2019-03-22T14:55:01.565Z,42
2019-03-22T15:00:01.910Z,44
2019-03-22T15:05:01.598Z,37
2019-03-22T15:10:01.414Z,40
2019-03-22T15:15:01.728Z,51
2019-03-22T15:20:02.210Z,48
2019-03-22T15:25:01.608Z,59
2019-03-22T15:30:01.958Z,56
2019-03-22T15:35:02.375Z,62
2019-03-22T15:40:02.315Z,59
2019-03-22T15:45:01.798Z,61
2019-03-22T15:50:02.207Z,52
2019-03-22T15:55:01.535Z,57
2019-03-22T16:00:01.929Z,62
2019-03-22T16:05:01.596Z,57
2019-03-22T16:10:01.377Z,58
2019-03-22T16:15:02.098Z,54
2019-03-22T16:20:01.531Z,53
2019-03-22T16:25:01.919Z,54
2019-03-22T16:30:02.288Z,52
2019-03-22T16:35:01.668Z,58
2019-03-22T16:40:01.404Z,45
2019-03-22T16:45:01.788Z,44
2019-03-22T16:50:02.164Z,47
2019-03-22T16:55:01.505Z,49
2019-03-22T17:00:01.805Z,46
2019-03-22T17:05:01.464Z,50
2019-03-22T17:10:02.254Z,47
2019-03-22T17:15:01.993Z,41
2019-03-22T17:20:01.398Z,48
2019-03-22T17:25:01.796Z,46
2019-03-22T17:30:02.143Z,43
2019-03-22T17:35:01.487Z,54
2019-03-22T17:40:02.291Z,51
2019-03-22T17:45:01.637Z,53
2019-03-22T17:50:02.026Z,48
2019-03-22T17:55:01.404Z,52
2019-03-22T18:00:01.704Z,61
2019-03-22T18:05:01.447Z,53
2019-03-22T18:10:02.214Z,45
2019-03-22T18:15:01.959Z,38
2019-03-22T18:20:01.362Z,43
2019-03-22T18:25:01.704Z,49
2019-03-22T18:30:02.090Z,45
2019-03-22T18:35:01.496Z,49
2019-03-22T18:40:02.311Z,46
2019-03-22T18:45:01.697Z,48
2019-03-22T18:50:02.099Z,39
2019-03-22T18:55:01.464Z,52
2019-03-22T19:00:01.774Z,42
2019-03-22T19:05:01.435Z,43
2019-03-22T19:10:02.224Z,47
2019-03-22T19:15:01.733Z,47
2019-03-22T19:20:02.189Z,38
2019-03-22T19:25:01.536Z,36
2019-03-22T19:30:01.891Z,38
2019-03-22T19:35:02.242Z,40
2019-03-22T19:40:02.021Z,45
2019-03-22T19:45:01.353Z,40
2019-03-22T19:50:01.775Z,44
2019-03-22T19:55:02.144Z,37
2019-03-22T20:00:01.490Z,37
2019-03-22T20:05:04.855Z,37
2019-03-22T20:10:02.120Z,37
2019-03-22T20:15:02.080Z,37
2019-03-22T20:20:01.552Z,37
2019-03-22T20:25:01.919Z,37
2019-03-22T20:30:02.280Z,37
2019-03-22T20:35:01.632Z,37
2019-03-22T20:40:01.438Z,37
2019-03-22T20:45:01.805Z,37
2019-03-22T20:50:02.161Z,43
2019-03-22T20:55:01.528Z,39
2019-03-22T21:00:01.910Z,44
2019-03-22T21:05:01.574Z,39
2019-03-22T21:10:01.340Z,252
2019-03-22T21:15:01.431Z,138
2019-03-22T21:20:01.886Z,92
2019-03-22T21:25:02.530Z,73
2019-03-22T21:30:01.879Z,68
2019-03-22T21:35:02.344Z,252
2019-03-22T21:40:02.142Z,195
2019-03-22T21:45:01.472Z,120
2019-03-22T21:50:01.878Z,92
2019-03-22T21:55:02.221Z,102
2019-03-22T22:00:01.525Z,79
2019-03-22T22:05:02.277Z,72
2019-03-22T22:10:02.132Z,75
2019-03-22T22:15:01.792Z,68
2019-03-22T22:20:02.281Z,61
2019-03-22T22:25:01.624Z,77
2019-03-22T22:30:02.009Z,91
2019-03-22T22:35:01.395Z,88
2019-03-22T22:40:02.178Z,150
2019-03-22T22:45:01.528Z,105
2019-03-22T22:50:01.882Z,77
2019-03-22T22:55:02.264Z,97
2019-03-22T23:00:01.600Z,135
2019-03-22T23:05:02.518Z,154
2019-03-22T23:10:02.332Z,122
2019-03-22T23:15:02.257Z,44
2019-03-22T23:20:02.132Z,37
2019-03-22T23:25:01.501Z,77
2019-03-22T23:30:02.288Z,39
2019-03-22T23:35:01.618Z,26
2019-03-22T23:40:01.397Z,22
2019-03-22T23:45:01.809Z,26
2019-03-22T23:50:02.179Z,28
2019-03-22T23:55:01.564Z,21
